Time;durP1;ratioP1;P1;durP2;ratioP2;P2;SDS_P1;SDS_P2;PMS_P1;PMS_P2;Temp;Humidity;BMP_temperature;BMP_pressure;BME280_temperature;BME280_humidity;BME280_pressure;Samples;Min_cycle;Max_cycle;Signal;HPM_P1;HPM_P2
2021/12/19 00:01:02;;;;;;;25.97;14.13;;;;;;;6.35;95.52;103642.59;5029378;28;20068;-61
2021/12/19 00:08:55;;;;;;;33.30;15.37;;;;;;;6.34;95.94;103629.47;5028388;28;20080;-61
2021/12/19 00:11:22;;;;;;;30.03;15.03;;;;;;;6.32;95.81;103628.69;5028749;28;20060;-61
2021/12/19 00:13:49;;;;;;;30.93;15.03;;;;;;;6.28;96.04;103617.44;5028654;28;20439;-61
2021/12/19 00:16:15;;;;;;;34.53;15.47;;;;;;;6.25;96.08;103609.69;5028882;28;20037;-61
2021/12/19 00:18:43;;;;;;;31.30;15.03;;;;;;;6.28;96.03;103603.38;5028111;28;20055;-61
2021/12/19 00:21:10;;;;;;;33.73;15.50;;;;;;;6.29;96.19;103613.88;5028441;28;20055;-61
2021/12/19 00:23:36;;;;;;;35.77;15.80;;;;;;;6.28;96.28;103617.44;5028638;28;20147;-61
2021/12/19 00:26:02;;;;;;;37.20;16.73;;;;;;;6.26;96.06;103613.16;5028708;28;20112;-61
2021/12/19 00:28:27;;;;;;;34.50;15.43;;;;;;;6.24;96.05;103612.38;5028280;28;20087;-61
2021/12/19 00:30:52;;;;;;;35.57;14.60;;;;;;;6.22;96.46;103612.47;5029119;28;20072;-61
2021/12/19 00:33:17;;;;;;;31.27;14.20;;;;;;;6.18;96.28;103611.75;5028447;28;20534;-61
2021/12/19 00:35:43;;;;;;;34.27;14.20;;;;;;;6.15;96.12;103617.19;5028749;28;20030;-61
2021/12/19 00:38:08;;;;;;;35.53;14.77;;;;;;;6.10;96.41;103607.78;5027624;28;20041;-61
2021/12/19 00:40:34;;;;;;;31.33;13.50;;;;;;;6.09;96.35;103606.94;5028798;28;20025;-61
2021/12/19 00:43:06;;;;;;;32.73;13.87;;;;;;;6.08;96.42;103607.00;5028670;28;20033;-61
2021/12/19 00:45:34;;;;;;;34.03;14.37;;;;;;;6.09;96.76;103599.03;5028651;28;20037;-61
2021/12/19 00:48:02;;;;;;;32.73;13.80;;;;;;;6.10;96.64;103603.38;5028510;28;20033;-61
2021/12/19 00:50:28;;;;;;;36.53;14.97;;;;;;;6.09;96.50;103604.31;5029258;28;20678;-61
2021/12/19 00:52:54;;;;;;;36.33;15.57;;;;;;;6.08;96.64;103599.94;5028891;28;20032;-61
2021/12/19 00:55:22;;;;;;;39.30;15.23;;;;;;;6.08;96.28;103601.75;5025385;28;20037;-61
2021/12/19 00:57:48;;;;;;;38.90;15.57;;;;;;;6.08;96.92;103599.94;5026789;28;20543;-61
2021/12/19 01:00:18;;;;;;;41.90;15.97;;;;;;;6.09;96.71;103596.38;5027021;28;20025;-61
2021/12/19 01:02:43;;;;;;;;;;;;;;;6.14;96.84;103594.38;5028849;28;20035;-61
2021/12/19 01:05:10;;;;;;;36.50;15.57;;;;;;;6.09;96.75;103588.47;5027998;28;20307;-61
2021/12/19 01:07:36;;;;;;;38.47;14.53;;;;;;;6.11;96.60;103588.41;5029159;28;20022;-61
2021/12/19 01:10:03;;;;;;;40.50;16.00;;;;;;;6.09;96.76;103588.47;5029235;28;20043;-61
2021/12/19 01:12:29;;;;;;;43.67;17.30;;;;;;;6.11;96.62;103588.41;5032139;28;20021;-61
2021/12/19 01:14:55;;;;;;;45.30;17.50;;;;;;;6.12;96.97;103585.69;5032525;28;20095;-61
2021/12/19 01:17:20;;;;;;;51.23;19.17;;;;;;;6.11;97.10;103589.25;5031613;28;20034;-61
2021/12/19 01:19:45;;;;;;;47.07;17.93;;;;;;;6.13;97.19;103589.19;5031948;28;20033;-61
2021/12/19 01:22:11;;;;;;;52.20;19.90;;;;;;;6.13;97.18;103586.53;5032272;28;20436;-61
2021/12/19 01:24:37;;;;;;;53.57;20.07;;;;;;;6.10;97.29;103577.00;5032038;28;20037;-61
2021/12/19 01:27:04;;;;;;;50.30;18.20;;;;;;;6.12;97.20;103574.28;5032229;28;20025;-61
2021/12/19 01:29:29;;;;;;;49.17;18.00;;;;;;;6.11;97.33;103577.84;5031153;28;20079;-61
2021/12/19 01:31:54;;;;;;;48.13;18.37;;;;;;;6.15;97.09;103579.41;5031988;28;20070;-61
2021/12/19 01:34:20;;;;;;;47.30;17.37;;;;;;;6.14;97.35;103582.97;5031572;28;20025;-61
2021/12/19 01:36:45;;;;;;;46.17;16.50;;;;;;;6.14;97.20;103581.19;5031904;28;20511;-61
2021/12/19 01:39:14;;;;;;;47.57;16.87;;;;;;;6.16;97.00;103573.19;5031355;28;20033;-61
2021/12/19 01:41:54;;;;;;;55.38;18.77;;;;;;;6.15;97.09;103579.41;5031763;28;20111;-61
2021/12/19 01:44:21;;;;;;;49.00;18.03;;;;;;;6.15;97.07;103576.75;5031896;28;20276;-60
2021/12/19 01:46:46;;;;;;;53.03;18.33;;;;;;;6.11;97.22;103575.19;5031784;28;20125;-61
2021/12/19 01:49:14;;;;;;;49.40;18.53;;;;;;;6.11;97.19;103572.56;5031469;28;20227;-61
2021/12/19 01:51:39;;;;;;;58.43;18.53;;;;;;;6.08;97.08;103565.66;5031277;28;20511;-61
2021/12/19 01:54:05;;;;;;;51.67;18.97;;;;;;;6.07;97.43;103565.69;5031442;28;20049;-60
2021/12/19 01:56:31;;;;;;;51.33;18.03;;;;;;;6.06;97.01;103561.34;5032736;28;20044;-61
2021/12/19 01:58:57;;;;;;;50.97;19.03;;;;;;;6.03;97.22;103556.22;5030976;28;20113;-61
2021/12/19 02:01:23;;;;;;;50.93;19.10;;;;;;;6.04;97.09;103566.72;5031351;28;20484;-60
2021/12/19 02:03:48;;;;;;;48.20;19.17;;;;;;;6.00;97.32;103561.66;5031492;28;20025;-61
2021/12/19 02:06:13;;;;;;;46.17;18.73;;;;;;;5.98;97.22;103563.50;5031330;28;20091;-61
2021/12/19 02:08:39;;;;;;;49.40;19.70;;;;;;;5.95;97.40;103553.13;5032958;28;20028;-61
2021/12/19 02:11:04;;;;;;;44.93;18.97;;;;;;;5.95;97.16;103561.03;5030790;28;20025;-61
2021/12/19 02:13:29;;;;;;;45.60;17.63;;;;;;;5.93;97.17;103553.19;5031570;28;20050;-60
2021/12/19 02:15:55;;;;;;;46.33;17.60;;;;;;;5.90;97.25;103558.63;5030795;28;20029;-61
2021/12/19 02:18:22;;;;;;;38.50;16.00;;;;;;;5.94;97.38;103557.53;5026377;28;20044;-61
2021/12/19 02:20:53;;;;;;;42.50;18.17;;;;;;;5.92;97.41;103556.75;5033076;28;20029;-61
2021/12/19 02:23:21;;;;;;;46.87;18.33;;;;;;;5.92;97.09;103553.28;5026332;28;20030;-61
2021/12/19 02:25:48;;;;;;;47.63;18.67;;;;;;;5.89;96.93;103539.31;5030183;28;20088;-60
2021/12/19 02:28:13;;;;;;;47.27;18.63;;;;;;;5.92;97.29;103545.34;5026218;28;20030;-61
2021/12/19 02:30:39;;;;;;;46.63;18.70;;;;;;;5.89;97.45;103547.22;5030466;28;20024;-61
2021/12/19 02:33:13;;;;;;;51.83;21.33;;;;;;;5.86;97.32;103535.94;5033091;28;20026;-61
2021/12/19 02:35:41;;;;;;;54.83;20.50;;;;;;;5.82;97.22;103537.88;5027961;28;20404;-61
2021/12/19 02:49:23;;;;;;;46.90;19.17;;;;;;;5.71;97.66;103536.66;5030362;28;20440;-61
2021/12/19 02:51:51;;;;;;;50.83;20.17;;;;;;;5.63;97.03;103526.47;5030752;28;20021;-61
2021/12/19 02:54:16;;;;;;;48.97;19.87;;;;;;;5.59;97.53;103523.13;5036004;28;20385;-60
2021/12/19 02:56:42;;;;;;;57.50;19.50;;;;;;;5.56;97.42;103520.63;5029956;28;20026;-61
2021/12/19 02:59:07;;;;;;;54.97;19.43;;;;;;;5.52;97.19;103527.00;5029897;28;20029;-61
2021/12/19 03:01:32;;;;;;;55.10;19.97;;;;;;;5.52;97.76;103515.59;5030053;28;20022;-61
2021/12/19 03:03:57;;;;;;;55.13;19.93;;;;;;;5.51;97.17;103529.69;5029709;28;20108;-61
2021/12/19 03:06:23;;;;;;;55.07;19.73;;;;;;;5.48;97.76;103514.84;5030367;28;20603;-61
2021/12/19 03:08:51;;;;;;;60.97;20.50;;;;;;;5.48;97.96;103508.72;5031089;28;20048;-61
2021/12/19 03:19:14;;;;;;;39.23;14.03;;;;;;;5.39;98.16;103506.53;5029842;28;20108;-61
2021/12/19 03:21:41;;;;;;;29.60;11.63;;;;;;;5.36;97.90;103499.63;5030151;28;20112;-61
2021/12/19 03:24:06;;;;;;;27.80;11.80;;;;;;;5.27;97.75;103502.69;5030079;28;20029;-60
2021/12/19 03:26:32;;;;;;;30.17;12.30;;;;;;;5.25;97.88;103507.19;5027107;28;20022;-61
2021/12/19 03:28:57;;;;;;;28.03;11.93;;;;;;;5.24;97.80;103497.56;5028961;28;20120;-61
2021/12/19 03:31:22;;;;;;;26.50;10.30;;;;;;;5.22;97.84;103492.38;5028471;28;20252;-61
2021/12/19 03:33:48;;;;;;;27.83;11.13;;;;;;;5.18;98.03;103493.41;5028686;28;20029;-61
2021/12/19 03:36:13;;;;;;;20.87;8.43;;;;;;;5.14;97.78;103483.94;5028051;28;20116;-61
2021/12/19 03:38:42;;;;;;;22.67;9.20;;;;;;;5.11;98.02;103485.88;5028842;28;20523;-61
2021/12/19 03:41:21;;;;;;;21.98;9.15;;;;;;;5.06;97.92;103486.09;5028838;28;20083;-61
2021/12/19 03:43:47;;;;;;;23.13;9.25;;;;;;;5.04;97.73;103484.44;5025576;28;20177;-61
2021/12/19 03:46:13;;;;;;;20.50;8.93;;;;;;;5.03;97.55;103480.09;5028277;28;20108;-61
2021/12/19 03:48:38;;;;;;;17.80;8.37;;;;;;;4.98;97.77;103475.06;5028130;28;20049;-60
2021/12/19 03:51:04;;;;;;;16.53;7.67;;;;;;;4.97;97.80;103481.25;5028524;28;20029;-61
2021/12/19 03:53:29;;;;;;;13.47;6.30;;;;;;;4.96;97.61;103480.38;5026703;28;20025;-60
2021/12/19 03:55:55;;;;;;;12.57;6.20;;;;;;;4.96;97.83;103480.38;5028601;28;20480;-60
2021/12/19 03:58:20;;;;;;;10.57;5.63;;;;;;;4.95;97.64;103476.06;5023871;28;20033;-61
2021/12/19 04:00:48;;;;;;;11.10;5.70;;;;;;;4.96;97.55;103474.28;5028828;28;20032;-60
2021/12/19 04:03:19;;;;;;;11.23;5.70;;;;;;;4.96;97.43;103469.84;5023630;28;20100;-61
2021/12/19 04:05:49;;;;;;;11.57;5.20;;;;;;;4.93;97.66;103469.16;5027519;28;20068;-61
2021/12/19 04:08:15;;;;;;;10.55;4.97;;;;;;;4.93;97.42;103464.72;5027490;28;20176;-61
2021/12/19 04:10:41;;;;;;;11.03;5.60;;;;;;;4.94;97.51;103460.31;5028764;28;20029;-60
2021/12/19 04:13:07;;;;;;;11.13;5.00;;;;;;;4.93;97.25;103456.84;5027484;28;20017;-60
2021/12/19 04:15:32;;;;;;;12.87;5.03;;;;;;;4.94;97.56;103444.53;5028450;28;20287;-61
2021/12/19 04:17:58;;;;;;;10.13;4.77;;;;;;;4.94;97.61;103440.13;5028137;28;20293;-61
2021/12/19 04:20:23;;;;;;;10.67;5.00;;;;;;;4.90;97.79;103435.03;5027893;28;20063;-61
2021/12/19 04:22:51;;;;;;;11.00;4.90;;;;;;;4.88;97.45;103432.47;5027677;28;20033;-61
2021/12/19 04:25:17;;;;;;;13.53;5.63;;;;;;;4.86;97.54;103436.09;5026621;28;20025;-61
2021/12/19 04:27:43;;;;;;;14.37;5.80;;;;;;;4.83;97.73;103441.50;5027340;28;20394;-60
2021/12/19 04:30:11;;;;;;;14.60;6.07;;;;;;;4.80;97.89;103429.34;5027574;28;20493;-61
2021/12/19 04:32:42;;;;;;;14.80;5.60;;;;;;;4.80;97.96;103425.84;5027164;28;20032;-60
2021/12/19 04:35:11;;;;;;;13.93;6.13;;;;;;;4.78;98.42;103420.66;5027558;28;20397;-61
2021/12/19 04:40:22;;;;;;;16.10;5.82;;;;;;;4.78;98.42;103404.88;5027125;28;20033;-61
2021/12/19 04:43:59;;;;;;;15.50;6.00;;;;;;;4.80;98.44;103408.28;5027562;28;20041;-61
2021/12/19 04:53:58;;;;;;;14.90;5.53;;;;;;;4.80;99.00;103410.06;5027395;28;20029;-60
2021/12/19 04:56:37;;;;;;;16.30;5.82;;;;;;;4.81;99.01;103407.34;5027778;28;20056;-61
2021/12/19 05:14:47;;;;;;;18.30;6.03;;;;;;;4.81;99.84;103388.06;5026562;28;20144;-60
2021/12/19 05:17:19;;;;;;;19.77;6.30;;;;;;;4.81;99.62;103394.19;5027057;28;20033;-61
2021/12/19 05:20:28;;;;;;;15.87;5.80;;;;;;;4.82;99.99;103395.03;5028390;28;20037;-61
2021/12/19 05:22:38;;;;;;;15.47;5.27;;;;;;;4.82;99.87;103392.41;5022186;28;20091;-61
2021/12/19 05:25:17;;;;;;;14.83;5.43;;;;;;;4.83;100.00;103399.38;5027719;28;20053;-61
2021/12/19 05:27:46;;;;;;;;;;;;;;;4.86;100.00;103397.47;5027060;28;20495;-60
2021/12/19 05:30:14;;;;;;;15.77;5.32;;;;;;;4.85;100.00;103394.91;5024540;28;19975;-60
2021/12/19 05:32:44;;;;;;;18.57;5.57;;;;;;;4.85;100.00;103390.47;5027327;28;20036;-61
2021/12/19 05:35:12;;;;;;;19.03;5.83;;;;;;;4.87;99.90;103395.69;5026692;28;20481;-61
2021/12/19 05:45:50;;;;;;;21.63;5.67;;;;;;;4.87;100.00;103382.50;5027754;28;20049;-61
2021/12/19 05:48:16;;;;;;;22.83;5.97;;;;;;;4.86;100.00;103386.06;5027154;28;20401;-61
2021/12/19 05:50:42;;;;;;;21.27;6.63;;;;;;;4.85;100.00;103387.84;5027097;28;20068;-61
2021/12/19 05:53:08;;;;;;;19.53;6.03;;;;;;;4.86;100.00;103381.66;5027986;28;20087;-61
2021/12/19 05:55:33;;;;;;;20.13;5.97;;;;;;;4.86;100.00;103376.41;5026549;28;20021;-61
2021/12/19 05:57:58;;;;;;;20.57;6.07;;;;;;;4.88;100.00;103364.00;5027769;28;20500;-61
2021/12/19 06:00:24;;;;;;;19.10;6.00;;;;;;;4.84;100.00;103359.81;5028442;28;20047;-61
2021/12/19 06:02:50;;;;;;;25.07;6.57;;;;;;;4.91;100.00;103363.00;5028227;28;20580;-61
2021/12/19 06:05:15;;;;;;;22.47;6.40;;;;;;;4.91;100.00;103360.38;5029983;28;20025;-61
2021/12/19 06:07:41;;;;;;;20.03;6.23;;;;;;;4.88;100.00;103360.53;5030908;28;20025;-61
2021/12/19 06:10:08;;;;;;;20.73;5.87;;;;;;;4.94;100.00;103370.78;5029453;28;20052;-61
2021/12/19 06:12:33;;;;;;;24.83;6.50;;;;;;;4.95;100.00;103360.19;5030094;28;20026;-61
2021/12/19 06:14:58;;;;;;;20.90;5.77;;;;;;;4.97;100.00;103370.66;5030658;28;20031;-61
2021/12/19 06:17:24;;;;;;;22.00;6.03;;;;;;;4.97;100.00;103360.97;5026663;28;20033;-61
2021/12/19 06:19:49;;;;;;;22.77;6.50;;;;;;;4.98;100.00;103359.19;5030080;28;20469;-60
2021/12/19 06:22:14;;;;;;;22.60;6.27;;;;;;;5.02;100.00;103363.38;5029657;28;20025;-61
2021/12/19 06:24:40;;;;;;;19.40;5.77;;;;;;;5.03;100.00;103369.50;5030589;28;20477;-60
2021/12/19 06:27:05;;;;;;;23.27;5.33;;;;;;;5.06;100.00;103372.84;5028956;28;20067;-61
2021/12/19 06:29:32;;;;;;;27.27;6.47;;;;;;;5.07;100.00;103363.16;5030635;28;20057;-61
2021/12/19 06:31:58;;;;;;;23.17;6.60;;;;;;;5.08;100.00;103363.09;5031222;28;20029;-61
2021/12/19 06:34:24;;;;;;;23.03;6.37;;;;;;;5.10;100.00;103363.00;5028140;28;20105;-61
2021/12/19 06:36:51;;;;;;;24.07;6.20;;;;;;;5.09;100.00;103361.31;5030994;28;20035;-61
2021/12/19 06:39:17;;;;;;;21.50;6.67;;;;;;;5.09;100.00;103361.31;5030399;28;20025;-60
2021/12/19 06:41:42;;;;;;;21.87;6.43;;;;;;;5.10;100.00;103363.00;5030349;28;20457;-61
2021/12/19 06:44:08;;;;;;;24.73;7.10;;;;;;;5.08;100.00;103349.91;5029980;28;20025;-60
2021/12/19 06:46:33;;;;;;;27.63;7.47;;;;;;;5.10;100.00;103350.69;5030735;28;20032;-61
2021/12/19 06:48:58;;;;;;;24.23;7.77;;;;;;;5.10;100.00;103350.69;5030417;28;20036;-61
2021/12/19 06:51:24;;;;;;;28.97;8.10;;;;;;;5.10;100.00;103341.94;5030124;28;20495;-61
2021/12/19 06:53:50;;;;;;;27.37;8.23;;;;;;;5.12;100.00;103338.31;5029802;28;20098;-61
2021/12/19 06:56:15;;;;;;;25.70;7.37;;;;;;;5.13;100.00;103321.56;5030048;28;20109;-61
2021/12/19 06:58:41;;;;;;;27.17;8.23;;;;;;;5.16;100.00;103323.19;5030141;28;20116;-60
2021/12/19 07:01:06;;;;;;;25.17;8.00;;;;;;;5.18;100.00;103322.19;5030552;28;20595;-61
2021/12/19 07:03:32;;;;;;;27.13;8.87;;;;;;;5.21;100.00;103315.94;5029942;28;20555;-61
2021/12/19 07:05:58;;;;;;;31.13;10.47;;;;;;;5.22;100.00;103312.38;5030362;28;20021;-61
2021/12/19 07:08:23;;;;;;;30.43;10.70;;;;;;;5.22;100.00;103307.97;5028677;28;20029;-61
2021/12/19 07:10:49;;;;;;;32.83;10.90;;;;;;;5.24;100.00;103324.56;5030826;28;20021;-61
2021/12/19 07:13:20;;;;;;;31.50;11.40;;;;;;;5.26;100.00;103319.22;5026040;28;20033;-60
2021/12/19 07:15:50;;;;;;;34.90;12.13;;;;;;;5.28;100.00;103327.88;5029356;28;20060;-60
2021/12/19 07:18:15;;;;;;;34.93;11.87;;;;;;;5.28;100.00;103326.09;5029163;28;20116;-60
2021/12/19 07:20:42;;;;;;;39.67;12.50;;;;;;;5.30;100.00;103331.31;5030469;28;20097;-60
2021/12/19 07:23:11;;;;;;;40.63;12.23;;;;;;;5.33;100.00;103328.50;5029845;28;20400;-60
2021/12/19 07:25:36;;;;;;;35.73;12.23;;;;;;;5.34;100.00;103321.47;5030409;28;20025;-60
2021/12/19 07:28:01;;;;;;;36.50;12.53;;;;;;;5.38;100.00;103323.00;5029146;28;20033;-60
2021/12/19 07:30:26;;;;;;;34.97;12.10;;;;;;;5.41;100.00;103317.59;5029967;28;20026;-60
2021/12/19 07:32:53;;;;;;;34.90;12.30;;;;;;;5.43;100.00;103321.00;5029594;28;20056;-60
2021/12/19 07:35:19;;;;;;;40.60;12.67;;;;;;;5.42;100.00;103314.88;5030044;28;20026;-60
2021/12/19 07:37:46;;;;;;;35.43;12.23;;;;;;;5.45;100.00;103311.22;5025507;28;20096;-60
2021/12/19 07:40:16;;;;;;;36.53;13.13;;;;;;;5.47;100.00;103307.59;5029114;28;20036;-60
2021/12/19 07:42:42;;;;;;;35.70;12.93;;;;;;;5.49;100.00;103303.13;5028681;28;20033;-60
2021/12/19 07:45:08;;;;;;;37.50;12.03;;;;;;;5.51;100.00;103303.03;5028917;28;20025;-60
2021/12/19 07:47:33;;;;;;;34.03;12.17;;;;;;;5.53;100.00;103298.53;5028082;28;20033;-61
2021/12/19 07:49:58;;;;;;;33.83;11.83;;;;;;;5.56;100.00;103301.03;5029499;28;20029;-60
2021/12/19 07:52:24;;;;;;;30.23;11.33;;;;;;;5.59;100.00;103296.44;5025115;28;20025;-60
2021/12/19 07:54:49;;;;;;;31.17;10.40;;;;;;;5.60;100.00;103300.78;5026488;28;20096;-60
2021/12/19 07:57:14;;;;;;;27.97;10.23;;;;;;;5.63;100.00;103296.28;5027768;28;20060;-60
2021/12/19 07:59:40;;;;;;;26.53;9.40;;;;;;;5.65;100.00;103294.41;5033247;28;20029;-61
2021/12/19 08:02:05;;;;;;;26.93;9.73;;;;;;;5.67;100.00;103288.13;5027994;28;20026;-61
2021/12/19 08:04:31;;;;;;;22.77;9.03;;;;;;;5.69;100.00;103291.53;5028257;28;20033;-61
2021/12/19 08:06:56;;;;;;;24.70;8.47;;;;;;;5.71;100.00;103284.41;5024050;28;20041;-61
2021/12/19 08:09:35;;;;;;;22.50;8.50;;;;;;;5.73;100.00;103290.44;5029024;28;20026;-61
2021/12/19 08:12:03;;;;;;;23.02;8.60;;;;;;;5.75;100.00;103291.22;5028046;28;20029;-60
2021/12/19 08:14:28;;;;;;;23.37;8.80;;;;;;;5.76;100.00;103298.19;5024612;28;20633;-63
2021/12/19 08:16:53;;;;;;;22.67;8.20;;;;;;;5.78;100.00;103285.81;5027857;28;20592;-63
2021/12/19 08:19:19;;;;;;;23.77;8.33;;;;;;;5.79;100.00;103289.31;5026043;28;20025;-64
2021/12/19 08:21:44;;;;;;;19.20;7.53;;;;;;;5.81;100.00;103280.38;5026992;28;20048;-63
2021/12/19 08:24:11;;;;;;;17.77;7.23;;;;;;;5.82;100.00;103282.09;5026623;28;20040;-63
2021/12/19 08:26:38;;;;;;;17.40;5.97;;;;;;;5.82;100.00;103282.09;5027286;28;20116;-63
2021/12/19 08:29:03;;;;;;;10.63;4.47;;;;;;;5.85;100.00;103283.72;5027932;28;20103;-63
2021/12/19 08:31:29;;;;;;;9.30;4.03;;;;;;;5.84;100.00;103280.22;5028358;28;20080;-63
2021/12/19 08:33:54;;;;;;;7.70;3.67;;;;;;;5.86;100.00;103280.13;5025967;28;20404;-63
2021/12/19 08:36:20;;;;;;;7.37;3.13;;;;;;;5.87;100.00;103285.31;5028795;28;20098;-64
2021/12/19 08:38:47;;;;;;;5.93;3.17;;;;;;;5.88;100.00;103281.75;5028118;28;20036;-64
2021/12/19 08:41:12;;;;;;;8.37;3.50;;;;;;;5.90;100.00;103285.19;5028044;28;20071;-63
2021/12/19 08:43:37;;;;;;;9.30;4.63;;;;;;;5.93;100.00;103286.81;5028413;28;20037;-64
2021/12/19 08:46:03;;;;;;;14.30;5.83;;;;;;;5.93;100.00;103278.06;5027629;28;20087;-64
2021/12/19 08:48:28;;;;;;;12.80;6.17;;;;;;;5.95;100.00;103278.81;5027194;28;20037;-64
2021/12/19 08:50:53;;;;;;;15.50;7.27;;;;;;;5.96;100.00;103281.38;5028535;28;20057;-64
2021/12/19 08:53:19;;;;;;;13.93;6.43;;;;;;;5.97;100.00;103280.44;5028317;28;20025;-63
2021/12/19 08:55:45;;;;;;;13.40;5.90;;;;;;;5.97;100.00;103279.59;5027945;28;20087;-62
2021/12/19 08:58:10;;;;;;;13.47;5.43;;;;;;;5.98;100.00;103276.88;5025984;28;20507;-61
2021/12/19 09:00:36;;;;;;;14.47;6.30;;;;;;;5.97;100.00;103269.91;5024273;28;20029;-61
2021/12/19 09:03:01;;;;;;;14.83;7.10;;;;;;;5.98;100.00;103263.69;5024587;28;20044;-61
2021/12/19 09:05:29;;;;;;;17.33;7.47;;;;;;;6.00;100.00;103269.72;5025924;28;20536;-61
2021/12/19 09:07:54;;;;;;;16.30;7.30;;;;;;;6.03;100.00;103268.72;5023985;28;20053;-61
2021/12/19 09:10:20;;;;;;;15.40;6.60;;;;;;;6.04;100.00;103265.16;5027708;28;20107;-61
2021/12/19 09:12:46;;;;;;;16.57;7.00;;;;;;;6.05;100.00;103266.84;5022998;28;20037;-61
2021/12/19 09:15:12;;;;;;;22.67;7.57;;;;;;;6.07;100.00;103264.97;5025908;28;20112;-61
2021/12/19 09:17:37;;;;;;;18.53;7.73;;;;;;;6.08;100.00;103266.72;5023445;28;20090;-61
2021/12/19 09:20:04;;;;;;;18.23;8.40;;;;;;;6.08;100.00;103259.66;5027661;28;20436;-61
2021/12/19 09:22:30;;;;;;;20.07;9.27;;;;;;;6.11;100.00;103264.75;5022416;28;20124;-61
2021/12/19 09:24:55;;;;;;;20.53;9.60;;;;;;;6.15;100.00;103262.81;5027829;28;20112;-60
2021/12/19 09:27:20;;;;;;;20.90;9.67;;;;;;;6.17;100.00;103259.16;5026850;28;20084;-60
2021/12/19 09:29:46;;;;;;;25.57;10.97;;;;;;;6.20;100.00;103263.41;5026547;28;20052;-60
2021/12/19 09:32:11;;;;;;;28.10;12.60;;;;;;;6.22;100.00;103261.53;5030531;28;20365;-60
2021/12/19 09:34:36;;;;;;;29.37;12.07;;;;;;;6.24;100.00;103262.31;5030043;28;20465;-60
2021/12/19 09:37:02;;;;;;;30.20;14.40;;;;;;;6.25;100.00;103264.00;5031160;28;20045;-60
2021/12/19 09:39:27;;;;;;;27.07;13.47;;;;;;;6.26;100.00;103257.78;5030849;28;20051;-60
2021/12/19 09:42:01;;;;;;;24.50;13.20;;;;;;;6.29;100.00;103257.63;5031030;28;20022;-60
2021/12/19 09:44:26;;;;;;;23.20;12.87;;;;;;;6.29;100.00;103257.63;5030181;28;20033;-60
2021/12/19 09:46:52;;;;;;;24.43;12.60;;;;;;;6.29;100.00;103251.50;5038719;28;20037;-60
2021/12/19 09:49:20;;;;;;;20.37;10.63;;;;;;;6.30;100.00;103261.09;5031438;28;20511;-61
2021/12/19 09:51:47;;;;;;;17.47;9.67;;;;;;;6.35;100.00;103257.28;5039942;28;20026;-59
2021/12/19 09:54:14;;;;;;;19.67;10.20;;;;;;;6.39;100.00;103264.13;5028446;28;20057;-60
2021/12/19 09:56:42;;;;;;;18.13;9.77;;;;;;;6.43;100.00;103260.38;5030319;28;20033;-61
2021/12/19 09:59:13;;;;;;;16.37;9.30;;;;;;;6.47;100.00;103266.34;5031306;28;20033;-60
2021/12/19 10:01:39;;;;;;;18.73;9.20;;;;;;;6.50;100.00;103267.00;5031187;28;20044;-60
2021/12/19 10:04:27;;;;;;;17.10;8.93;;;;;;;6.54;100.00;103257.13;5031089;28;20040;-61
2021/12/19 10:07:10;;;;;;;16.90;9.10;;;;;;;6.55;100.00;103261.47;5030432;28;20037;-61
2021/12/19 10:09:38;;;;;;;18.77;10.13;;;;;;;6.55;100.00;103264.13;5028840;28;20037;-60
2021/12/19 10:15:01;;;;;;;19.20;11.43;;;;;;;6.57;100.00;103250.81;5024252;28;20037;-60
2021/12/19 10:17:26;;;;;;;20.17;11.27;;;;;;;6.59;100.00;103248.94;5030270;28;20033;-61
2021/12/19 10:19:54;;;;;;;22.67;11.73;;;;;;;6.59;100.00;103249.81;5025027;28;20108;-60
2021/12/19 10:22:31;;;;;;;19.93;11.77;;;;;;;6.62;100.00;103247.00;5030342;28;20590;-61
2021/12/19 10:25:09;;;;;;;24.90;12.27;;;;;;;6.65;100.00;103244.19;5027659;28;20057;-60
2021/12/19 10:27:52;;;;;;;20.97;11.57;;;;;;;6.66;100.00;103239.78;5029861;28;20415;-61
2021/12/19 10:30:25;;;;;;;15.80;9.93;;;;;;;6.65;100.00;103240.69;5029334;28;20033;-61
2021/12/19 10:33:07;;;;;;;17.37;9.37;;;;;;;6.68;100.00;103229.97;5029258;28;20038;-61
2021/12/19 10:35:46;;;;;;;14.97;7.83;;;;;;;6.70;100.00;103236.03;5028349;28;20255;-61
2021/12/19 10:38:22;;;;;;;12.93;7.63;;;;;;;6.68;100.00;103228.19;5024739;28;20044;-61
2021/12/19 10:40:48;;;;;;;14.53;7.40;;;;;;;6.73;100.00;103227.91;5026894;28;20039;-61
2021/12/19 10:43:17;;;;;;;11.33;5.37;;;;;;;6.74;100.00;103224.34;5030568;28;20124;-61
2021/12/19 10:45:44;;;;;;;7.05;4.93;;;;;;;6.74;99.94;103227.84;5028953;28;20083;-61
2021/12/19 10:48:32;;;;;;;7.43;4.43;;;;;;;6.75;99.91;103226.03;5030589;28;20128;-61
2021/12/19 10:51:04;;;;;;;7.73;4.50;;;;;;;6.75;99.51;103216.34;5029762;28;20036;-61
2021/12/19 10:53:39;;;;;;;6.20;3.97;;;;;;;6.78;99.35;103213.50;5029224;28;20037;-61
2021/12/19 10:56:14;;;;;;;5.47;3.67;;;;;;;6.80;99.32;103214.28;5026207;28;20246;-60
2021/12/19 10:58:52;;;;;;;6.27;3.63;;;;;;;6.81;99.41;103204.56;5029954;28;20022;-60
2021/12/19 11:01:29;;;;;;;5.38;3.25;;;;;;;6.84;99.23;103205.22;5030773;28;20030;-61
2021/12/19 11:04:08;;;;;;;5.60;2.80;;;;;;;6.85;99.38;103195.50;5028827;28;20091;-61
2021/12/19 11:06:38;;;;;;;4.75;2.88;;;;;;;6.84;98.86;103188.53;5029871;28;20033;-61
2021/12/19 11:09:08;;;;;;;;;;;;;;;6.95;99.00;103190.56;5030287;28;20104;-61
2021/12/19 11:11:45;;;;;;;5.50;2.75;;;;;;;6.85;98.85;103184.94;5029586;28;19972;-61
2021/12/19 11:14:32;;;;;;;3.80;2.08;;;;;;;6.90;99.13;103177.59;5029394;28;20109;-59
2021/12/19 11:17:00;;;;;;;5.38;2.42;;;;;;;6.89;99.12;103170.63;5029152;28;20453;-60
2021/12/19 11:19:26;;;;;;;4.05;2.00;;;;;;;6.90;98.63;103168.84;5029238;28;20457;-60
2021/12/19 11:21:52;;;;;;;3.33;1.83;;;;;;;6.90;98.87;103160.91;5029824;28;20021;-60
2021/12/19 11:24:19;;;;;;;2.28;1.48;;;;;;;6.90;98.46;103159.13;5029715;28;20017;-60
2021/12/19 11:26:48;;;;;;;2.25;1.38;;;;;;;6.89;98.81;103156.56;5028964;28;20041;-60
2021/12/19 11:29:15;;;;;;;3.83;1.80;;;;;;;6.88;98.56;103139.03;5024514;28;20021;-60
2021/12/19 11:31:44;;;;;;;2.50;1.40;;;;;;;6.90;98.51;103145.91;5027595;28;20057;-60
2021/12/19 11:34:21;;;;;;;2.45;1.73;;;;;;;6.92;98.22;103137.91;5026053;28;20057;-60
2021/12/19 11:37:00;;;;;;;3.58;1.80;;;;;;;6.92;98.22;103136.09;5027149;28;20033;-60
2021/12/19 11:39:35;;;;;;;2.22;1.85;;;;;;;6.93;98.26;103129.03;5029077;28;20060;-60
2021/12/19 11:42:15;;;;;;;3.33;2.17;;;;;;;6.94;98.45;103136.91;5026533;28;20264;-60
2021/12/19 11:47:51;;;;;;;3.40;2.38;;;;;;;6.94;98.27;103125.44;5027097;28;20128;-60
2021/12/19 11:50:28;;;;;;;4.37;2.50;;;;;;;6.92;98.21;103129.97;5024078;28;20017;-60
2021/12/19 11:53:18;;;;;;;3.53;2.50;;;;;;;6.92;98.18;103132.63;5027652;28;20532;-60
2021/12/19 11:55:46;;;;;;;5.85;3.47;;;;;;;6.93;97.99;103131.66;5026426;28;20330;-60
2021/12/19 11:58:11;;;;;;;4.10;2.90;;;;;;;6.94;98.32;103128.97;5027152;28;20025;-61
2021/12/19 12:00:40;;;;;;;4.45;3.13;;;;;;;6.97;98.12;103120.00;5028867;28;20040;-60
2021/12/19 12:03:14;;;;;;;5.50;3.60;;;;;;;6.98;98.37;103117.28;5029098;28;20094;-60
2021/12/19 12:05:51;;;;;;;5.05;3.33;;;;;;;6.99;98.41;103118.97;5028762;28;20021;-60
2021/12/19 12:08:17;;;;;;;7.03;3.70;;;;;;;6.99;98.10;103112.84;5032384;28;20083;-61
2021/12/19 12:10:48;;;;;;;5.97;3.70;;;;;;;7.00;98.31;103109.25;5026398;28;20492;-60
2021/12/19 12:13:22;;;;;;;7.00;4.22;;;;;;;7.01;97.67;103106.53;5024865;28;20111;-61
2021/12/19 12:15:51;;;;;;;7.78;4.30;;;;;;;6.99;97.75;103104.91;5024105;28;20022;-61
2021/12/19 12:18:39;;;;;;;6.83;3.90;;;;;;;7.02;97.49;103100.28;5027719;28;20211;-60
2021/12/19 12:21:26;;;;;;;8.68;4.40;;;;;;;7.01;97.51;103097.75;5027662;28;20025;-60
2021/12/19 12:23:59;;;;;;;10.20;4.70;;;;;;;6.98;97.73;103100.56;5026922;28;20064;-61
2021/12/19 12:26:28;;;;;;;12.43;4.38;;;;;;;6.98;97.32;103095.28;5025099;28;20014;-60
2021/12/19 12:28:54;;;;;;;8.13;4.85;;;;;;;6.98;97.60;103101.44;5027965;28;20029;-61